sensor_id;sensor_type;location;lat;lon;timestamp;P1;durP1;ratioP1;P2;durP2;ratioP2
17842;SDS011;69286;48.222;16.332;2024-02-14T00:02:19;3.17;;;2.87;;
17842;SDS011;69286;48.222;16.332;2024-02-14T00:04:45;5.47;;;3.40;;
17842;SDS011;69286;48.222;16.332;2024-02-14T00:07:13;9.70;;;5.00;;
17842;SDS011;69286;48.222;16.332;2024-02-14T00:09:40;9.87;;;4.90;;
17842;SDS011;69286;48.222;16.332;2024-02-14T00:12:07;9.73;;;5.37;;
17842;SDS011;69286;48.222;16.332;2024-02-14T00:14:37;8.50;;;4.57;;
17842;SDS011;69286;48.222;16.332;2024-02-14T00:17:04;5.67;;;3.87;;
17842;SDS011;69286;48.222;16.332;2024-02-14T00:19:32;8.43;;;3.90;;
17842;SDS011;69286;48.222;16.332;2024-02-14T00:21:59;8.43;;;4.53;;
17842;SDS011;69286;48.222;16.332;2024-02-14T00:24:26;8.70;;;4.43;;
17842;SDS011;69286;48.222;16.332;2024-02-14T00:26:54;7.77;;;4.07;;
17842;SDS011;69286;48.222;16.332;2024-02-14T00:29:22;9.80;;;4.17;;
17842;SDS011;69286;48.222;16.332;2024-02-14T00:31:50;8.93;;;4.23;;
17842;SDS011;69286;48.222;16.332;2024-02-14T00:34:17;8.53;;;4.53;;
17842;SDS011;69286;48.222;16.332;2024-02-14T00:36:44;9.60;;;4.40;;
17842;SDS011;69286;48.222;16.332;2024-02-14T00:39:11;8.37;;;4.03;;
17842;SDS011;69286;48.222;16.332;2024-02-14T00:41:38;7.87;;;3.67;;
17842;SDS011;69286;48.222;16.332;2024-02-14T00:44:05;5.37;;;3.80;;
17842;SDS011;69286;48.222;16.332;2024-02-14T00:46:32;5.70;;;3.27;;
17842;SDS011;69286;48.222;16.332;2024-02-14T00:49:00;8.00;;;3.60;;
17842;SDS011;69286;48.222;16.332;2024-02-14T00:51:27;7.83;;;3.63;;
17842;SDS011;69286;48.222;16.332;2024-02-14T00:53:54;5.50;;;3.20;;
17842;SDS011;69286;48.222;16.332;2024-02-14T00:56:21;5.50;;;3.20;;
17842;SDS011;69286;48.222;16.332;2024-02-14T00:58:49;6.93;;;3.00;;
17842;SDS011;69286;48.222;16.332;2024-02-14T01:01:16;4.03;;;3.30;;
17842;SDS011;69286;48.222;16.332;2024-02-14T01:03:43;2.83;;;2.50;;
17842;SDS011;69286;48.222;16.332;2024-02-14T01:06:11;4.50;;;3.23;;
17842;SDS011;69286;48.222;16.332;2024-02-14T01:08:39;8.87;;;3.27;;
17842;SDS011;69286;48.222;16.332;2024-02-14T01:11:06;7.23;;;3.23;;
17842;SDS011;69286;48.222;16.332;2024-02-14T01:13:33;5.17;;;3.40;;
17842;SDS011;69286;48.222;16.332;2024-02-14T01:16:00;3.53;;;2.77;;
17842;SDS011;69286;48.222;16.332;2024-02-14T01:18:28;5.37;;;2.80;;
17842;SDS011;69286;48.222;16.332;2024-02-14T01:20:55;3.77;;;2.83;;
17842;SDS011;69286;48.222;16.332;2024-02-14T01:23:25;5.50;;;3.00;;
17842;SDS011;69286;48.222;16.332;2024-02-14T01:25:52;3.43;;;3.13;;
17842;SDS011;69286;48.222;16.332;2024-02-14T01:28:19;3.27;;;2.97;;
17842;SDS011;69286;48.222;16.332;2024-02-14T01:30:46;5.10;;;3.00;;
17842;SDS011;69286;48.222;16.332;2024-02-14T01:33:13;3.73;;;3.00;;
17842;SDS011;69286;48.222;16.332;2024-02-14T01:35:41;9.20;;;3.90;;
17842;SDS011;69286;48.222;16.332;2024-02-14T01:38:08;6.53;;;3.53;;
17842;SDS011;69286;48.222;16.332;2024-02-14T01:40:38;4.07;;;3.17;;
17842;SDS011;69286;48.222;16.332;2024-02-14T01:43:08;6.60;;;3.80;;
17842;SDS011;69286;48.222;16.332;2024-02-14T01:45:37;6.43;;;3.30;;
17842;SDS011;69286;48.222;16.332;2024-02-14T01:48:05;4.33;;;3.47;;
17842;SDS011;69286;48.222;16.332;2024-02-14T01:50:33;6.73;;;4.00;;
17842;SDS011;69286;48.222;16.332;2024-02-14T01:53:00;7.10;;;3.70;;
17842;SDS011;69286;48.222;16.332;2024-02-14T01:55:28;4.13;;;3.50;;
17842;SDS011;69286;48.222;16.332;2024-02-14T01:57:58;8.90;;;4.03;;
17842;SDS011;69286;48.222;16.332;2024-02-14T02:00:25;8.17;;;3.83;;
17842;SDS011;69286;48.222;16.332;2024-02-14T02:02:52;5.97;;;3.57;;
17842;SDS011;69286;48.222;16.332;2024-02-14T02:05:20;4.60;;;3.80;;
17842;SDS011;69286;48.222;16.332;2024-02-14T02:07:47;6.07;;;3.97;;
17842;SDS011;69286;48.222;16.332;2024-02-14T02:10:15;5.77;;;3.93;;
17842;SDS011;69286;48.222;16.332;2024-02-14T02:12:42;4.30;;;3.47;;
17842;SDS011;69286;48.222;16.332;2024-02-14T02:15:11;8.57;;;4.67;;
17842;SDS011;69286;48.222;16.332;2024-02-14T02:17:39;4.40;;;3.60;;
17842;SDS011;69286;48.222;16.332;2024-02-14T02:20:07;7.70;;;4.23;;
17842;SDS011;69286;48.222;16.332;2024-02-14T02:22:34;5.93;;;3.30;;
17842;SDS011;69286;48.222;16.332;2024-02-14T02:25:03;5.93;;;3.93;;
17842;SDS011;69286;48.222;16.332;2024-02-14T02:27:32;5.97;;;3.83;;
17842;SDS011;69286;48.222;16.332;2024-02-14T02:30:03;5.90;;;3.37;;
17842;SDS011;69286;48.222;16.332;2024-02-14T02:32:30;6.00;;;4.20;;
17842;SDS011;69286;48.222;16.332;2024-02-14T02:34:57;6.37;;;3.70;;
17842;SDS011;69286;48.222;16.332;2024-02-14T02:37:25;7.90;;;3.80;;
17842;SDS011;69286;48.222;16.332;2024-02-14T02:39:53;8.43;;;3.53;;
17842;SDS011;69286;48.222;16.332;2024-02-14T02:42:22;5.83;;;3.77;;
17842;SDS011;69286;48.222;16.332;2024-02-14T02:44:49;4.63;;;3.30;;
17842;SDS011;69286;48.222;16.332;2024-02-14T02:47:16;7.70;;;4.00;;
17842;SDS011;69286;48.222;16.332;2024-02-14T02:49:44;8.63;;;4.20;;
17842;SDS011;69286;48.222;16.332;2024-02-14T02:52:11;8.43;;;3.93;;
17842;SDS011;69286;48.222;16.332;2024-02-14T02:54:38;5.57;;;3.67;;
17842;SDS011;69286;48.222;16.332;2024-02-14T02:57:08;5.63;;;3.50;;
17842;SDS011;69286;48.222;16.332;2024-02-14T02:59:36;4.53;;;3.73;;
17842;SDS011;69286;48.222;16.332;2024-02-14T03:02:06;5.57;;;3.60;;
17842;SDS011;69286;48.222;16.332;2024-02-14T03:04:35;4.47;;;3.90;;
17842;SDS011;69286;48.222;16.332;2024-02-14T03:07:02;6.83;;;4.30;;
17842;SDS011;69286;48.222;16.332;2024-02-14T03:09:31;8.43;;;3.90;;
17842;SDS011;69286;48.222;16.332;2024-02-14T03:11:58;6.93;;;4.10;;
17842;SDS011;69286;48.222;16.332;2024-02-14T03:14:28;4.80;;;3.77;;
17842;SDS011;69286;48.222;16.332;2024-02-14T03:16:59;9.30;;;4.33;;
17842;SDS011;69286;48.222;16.332;2024-02-14T03:19:27;4.23;;;3.53;;
17842;SDS011;69286;48.222;16.332;2024-02-14T03:21:55;4.20;;;3.57;;
17842;SDS011;69286;48.222;16.332;2024-02-14T03:24:22;5.87;;;3.33;;
17842;SDS011;69286;48.222;16.332;2024-02-14T03:26:50;6.07;;;3.77;;
17842;SDS011;69286;48.222;16.332;2024-02-14T03:29:18;19.27;;;5.27;;
17842;SDS011;69286;48.222;16.332;2024-02-14T03:31:45;11.63;;;4.63;;
17842;SDS011;69286;48.222;16.332;2024-02-14T03:34:14;14.77;;;4.87;;
17842;SDS011;69286;48.222;16.332;2024-02-14T03:36:41;6.30;;;4.93;;
17842;SDS011;69286;48.222;16.332;2024-02-14T03:39:08;8.13;;;4.60;;
17842;SDS011;69286;48.222;16.332;2024-02-14T03:41:35;6.77;;;4.07;;
17842;SDS011;69286;48.222;16.332;2024-02-14T03:44:03;8.30;;;4.10;;
17842;SDS011;69286;48.222;16.332;2024-02-14T03:46:31;7.30;;;4.07;;
17842;SDS011;69286;48.222;16.332;2024-02-14T03:49:00;4.40;;;4.00;;
17842;SDS011;69286;48.222;16.332;2024-02-14T03:51:28;8.73;;;4.47;;
17842;SDS011;69286;48.222;16.332;2024-02-14T03:53:56;4.43;;;4.03;;
17842;SDS011;69286;48.222;16.332;2024-02-14T03:56:23;7.73;;;4.90;;
17842;SDS011;69286;48.222;16.332;2024-02-14T03:58:51;5.30;;;3.87;;
17842;SDS011;69286;48.222;16.332;2024-02-14T04:01:18;7.93;;;4.37;;
17842;SDS011;69286;48.222;16.332;2024-02-14T04:03:46;6.87;;;4.10;;
17842;SDS011;69286;48.222;16.332;2024-02-14T04:06:14;4.40;;;4.00;;
17842;SDS011;69286;48.222;16.332;2024-02-14T04:08:43;6.97;;;4.43;;
17842;SDS011;69286;48.222;16.332;2024-02-14T04:11:10;4.67;;;3.70;;
17842;SDS011;69286;48.222;16.332;2024-02-14T04:13:38;6.50;;;4.73;;
17842;SDS011;69286;48.222;16.332;2024-02-14T04:16:06;5.57;;;4.47;;
17842;SDS011;69286;48.222;16.332;2024-02-14T04:18:33;10.07;;;4.20;;
17842;SDS011;69286;48.222;16.332;2024-02-14T04:21:00;5.40;;;4.17;;
17842;SDS011;69286;48.222;16.332;2024-02-14T04:23:29;5.50;;;4.20;;
17842;SDS011;69286;48.222;16.332;2024-02-14T04:25:58;5.23;;;3.87;;
17842;SDS011;69286;48.222;16.332;2024-02-14T04:28:25;6.60;;;4.17;;
17842;SDS011;69286;48.222;16.332;2024-02-14T04:30:52;6.07;;;4.20;;
17842;SDS011;69286;48.222;16.332;2024-02-14T04:33:20;4.27;;;3.87;;
17842;SDS011;69286;48.222;16.332;2024-02-14T04:35:47;6.03;;;3.83;;
17842;SDS011;69286;48.222;16.332;2024-02-14T04:38:15;5.50;;;4.00;;
17842;SDS011;69286;48.222;16.332;2024-02-14T04:40:43;4.93;;;4.40;;
17842;SDS011;69286;48.222;16.332;2024-02-14T04:43:12;5.40;;;4.40;;
17842;SDS011;69286;48.222;16.332;2024-02-14T04:45:38;9.17;;;4.60;;
17842;SDS011;69286;48.222;16.332;2024-02-14T04:48:06;9.87;;;4.47;;
17842;SDS011;69286;48.222;16.332;2024-02-14T04:50:33;5.80;;;3.87;;
17842;SDS011;69286;48.222;16.332;2024-02-14T04:53:00;5.77;;;4.07;;
17842;SDS011;69286;48.222;16.332;2024-02-14T04:55:27;6.93;;;4.53;;
17842;SDS011;69286;48.222;16.332;2024-02-14T04:57:54;6.13;;;4.47;;
17842;SDS011;69286;48.222;16.332;2024-02-14T05:00:23;8.83;;;4.20;;
17842;SDS011;69286;48.222;16.332;2024-02-14T05:02:50;9.90;;;4.87;;
17842;SDS011;69286;48.222;16.332;2024-02-14T05:05:17;8.83;;;4.67;;
17842;SDS011;69286;48.222;16.332;2024-02-14T05:07:45;9.53;;;4.90;;
17842;SDS011;69286;48.222;16.332;2024-02-14T05:10:12;7.90;;;4.90;;
17842;SDS011;69286;48.222;16.332;2024-02-14T05:12:39;13.30;;;5.10;;
17842;SDS011;69286;48.222;16.332;2024-02-14T05:15:07;7.17;;;4.93;;
17842;SDS011;69286;48.222;16.332;2024-02-14T05:17:35;8.40;;;4.83;;
17842;SDS011;69286;48.222;16.332;2024-02-14T05:20:03;6.07;;;4.90;;
17842;SDS011;69286;48.222;16.332;2024-02-14T05:22:34;6.07;;;4.87;;
17842;SDS011;69286;48.222;16.332;2024-02-14T05:25:02;6.67;;;5.07;;
17842;SDS011;69286;48.222;16.332;2024-02-14T05:27:30;8.30;;;5.40;;
17842;SDS011;69286;48.222;16.332;2024-02-14T05:29:57;9.67;;;5.37;;
17842;SDS011;69286;48.222;16.332;2024-02-14T05:32:24;9.43;;;6.27;;
17842;SDS011;69286;48.222;16.332;2024-02-14T05:34:52;7.97;;;5.37;;
17842;SDS011;69286;48.222;16.332;2024-02-14T05:37:19;6.20;;;5.30;;
17842;SDS011;69286;48.222;16.332;2024-02-14T05:39:46;8.03;;;5.70;;
17842;SDS011;69286;48.222;16.332;2024-02-14T05:42:13;13.43;;;5.80;;
17842;SDS011;69286;48.222;16.332;2024-02-14T05:44:41;8.33;;;5.57;;
17842;SDS011;69286;48.222;16.332;2024-02-14T05:47:09;6.47;;;5.43;;
17842;SDS011;69286;48.222;16.332;2024-02-14T05:49:37;9.23;;;6.00;;
17842;SDS011;69286;48.222;16.332;2024-02-14T05:52:06;8.53;;;5.90;;
17842;SDS011;69286;48.222;16.332;2024-02-14T05:54:33;11.57;;;5.90;;
17842;SDS011;69286;48.222;16.332;2024-02-14T05:57:01;9.60;;;4.73;;
17842;SDS011;69286;48.222;16.332;2024-02-14T05:59:28;11.47;;;5.77;;
17842;SDS011;69286;48.222;16.332;2024-02-14T06:01:55;9.07;;;5.60;;
17842;SDS011;69286;48.222;16.332;2024-02-14T06:04:25;10.90;;;5.70;;
17842;SDS011;69286;48.222;16.332;2024-02-14T06:06:51;8.90;;;5.77;;
17842;SDS011;69286;48.222;16.332;2024-02-14T06:09:20;9.17;;;6.10;;
17842;SDS011;69286;48.222;16.332;2024-02-14T06:11:47;13.33;;;6.30;;
17842;SDS011;69286;48.222;16.332;2024-02-14T06:14:14;11.50;;;6.43;;
17842;SDS011;69286;48.222;16.332;2024-02-14T06:16:41;10.50;;;6.23;;
17842;SDS011;69286;48.222;16.332;2024-02-14T06:19:09;10.13;;;5.93;;
17842;SDS011;69286;48.222;16.332;2024-02-14T06:21:36;11.67;;;8.37;;
17842;SDS011;69286;48.222;16.332;2024-02-14T06:24:04;11.67;;;7.03;;
17842;SDS011;69286;48.222;16.332;2024-02-14T06:26:32;14.20;;;7.43;;
17842;SDS011;69286;48.222;16.332;2024-02-14T06:28:59;11.40;;;6.67;;
17842;SDS011;69286;48.222;16.332;2024-02-14T06:31:27;14.70;;;7.50;;
17842;SDS011;69286;48.222;16.332;2024-02-14T06:33:54;16.80;;;8.10;;
17842;SDS011;69286;48.222;16.332;2024-02-14T06:36:21;11.93;;;6.90;;
17842;SDS011;69286;48.222;16.332;2024-02-14T06:38:48;14.93;;;7.83;;
17842;SDS011;69286;48.222;16.332;2024-02-14T06:41:16;19.23;;;7.60;;
17842;SDS011;69286;48.222;16.332;2024-02-14T06:43:44;12.53;;;6.97;;
17842;SDS011;69286;48.222;16.332;2024-02-14T06:46:11;14.40;;;7.07;;
17842;SDS011;69286;48.222;16.332;2024-02-14T06:48:38;9.70;;;6.47;;
17842;SDS011;69286;48.222;16.332;2024-02-14T06:51:06;11.93;;;6.30;;
17842;SDS011;69286;48.222;16.332;2024-02-14T06:53:33;13.70;;;6.40;;
17842;SDS011;69286;48.222;16.332;2024-02-14T06:56:00;15.83;;;6.87;;
17842;SDS011;69286;48.222;16.332;2024-02-14T06:58:27;9.63;;;6.23;;
17842;SDS011;69286;48.222;16.332;2024-02-14T07:00:56;20.80;;;9.43;;
17842;SDS011;69286;48.222;16.332;2024-02-14T07:03:23;18.70;;;8.30;;
17842;SDS011;69286;48.222;16.332;2024-02-14T07:05:50;21.27;;;8.13;;
17842;SDS011;69286;48.222;16.332;2024-02-14T07:08:17;13.90;;;7.43;;
17842;SDS011;69286;48.222;16.332;2024-02-14T07:10:44;19.07;;;7.67;;
17842;SDS011;69286;48.222;16.332;2024-02-14T07:13:11;12.50;;;7.27;;
17842;SDS011;69286;48.222;16.332;2024-02-14T07:15:39;15.67;;;7.43;;
17842;SDS011;69286;48.222;16.332;2024-02-14T07:18:07;10.80;;;7.07;;
17842;SDS011;69286;48.222;16.332;2024-02-14T07:20:35;11.30;;;6.93;;
17842;SDS011;69286;48.222;16.332;2024-02-14T07:23:02;15.70;;;6.63;;
17842;SDS011;69286;48.222;16.332;2024-02-14T07:25:29;11.27;;;5.97;;
17842;SDS011;69286;48.222;16.332;2024-02-14T07:27:56;10.67;;;6.10;;
17842;SDS011;69286;48.222;16.332;2024-02-14T07:30:23;11.37;;;6.13;;
17842;SDS011;69286;48.222;16.332;2024-02-14T07:32:50;13.93;;;7.17;;
17842;SDS011;69286;48.222;16.332;2024-02-14T07:35:19;10.37;;;6.23;;
17842;SDS011;69286;48.222;16.332;2024-02-14T07:37:46;10.57;;;5.83;;
17842;SDS011;69286;48.222;16.332;2024-02-14T07:40:13;14.63;;;7.57;;
17842;SDS011;69286;48.222;16.332;2024-02-14T07:42:41;16.03;;;6.60;;
17842;SDS011;69286;48.222;16.332;2024-02-14T07:45:08;12.97;;;6.87;;
17842;SDS011;69286;48.222;16.332;2024-02-14T07:47:35;9.70;;;6.50;;
17842;SDS011;69286;48.222;16.332;2024-02-14T07:50:02;10.33;;;6.40;;
17842;SDS011;69286;48.222;16.332;2024-02-14T07:52:31;12.77;;;6.27;;
17842;SDS011;69286;48.222;16.332;2024-02-14T07:54:58;12.13;;;6.57;;
17842;SDS011;69286;48.222;16.332;2024-02-14T07:57:25;11.63;;;6.60;;
17842;SDS011;69286;48.222;16.332;2024-02-14T07:59:52;19.37;;;6.60;;
17842;SDS011;69286;48.222;16.332;2024-02-14T08:02:19;13.03;;;6.60;;
17842;SDS011;69286;48.222;16.332;2024-02-14T08:04:47;14.30;;;7.10;;
17842;SDS011;69286;48.222;16.332;2024-02-14T08:07:14;10.77;;;6.30;;
17842;SDS011;69286;48.222;16.332;2024-02-14T08:09:42;11.10;;;6.13;;
17842;SDS011;69286;48.222;16.332;2024-02-14T08:12:09;7.73;;;5.50;;
17842;SDS011;69286;48.222;16.332;2024-02-14T08:14:36;7.93;;;5.37;;
17842;SDS011;69286;48.222;16.332;2024-02-14T08:17:03;12.63;;;5.87;;
17842;SDS011;69286;48.222;16.332;2024-02-14T08:19:30;11.60;;;5.63;;
17842;SDS011;69286;48.222;16.332;2024-02-14T08:21:58;10.60;;;5.80;;
17842;SDS011;69286;48.222;16.332;2024-02-14T08:24:25;10.17;;;5.37;;
17842;SDS011;69286;48.222;16.332;2024-02-14T08:26:54;11.07;;;5.23;;
17842;SDS011;69286;48.222;16.332;2024-02-14T08:29:21;11.70;;;5.33;;
17842;SDS011;69286;48.222;16.332;2024-02-14T08:31:48;14.53;;;6.13;;
17842;SDS011;69286;48.222;16.332;2024-02-14T08:34:15;12.57;;;5.40;;
17842;SDS011;69286;48.222;16.332;2024-02-14T08:36:42;12.47;;;6.37;;
17842;SDS011;69286;48.222;16.332;2024-02-14T08:39:09;7.07;;;5.27;;
17842;SDS011;69286;48.222;16.332;2024-02-14T08:41:37;12.93;;;5.23;;
17842;SDS011;69286;48.222;16.332;2024-02-14T08:44:07;12.33;;;4.90;;
17842;SDS011;69286;48.222;16.332;2024-02-14T08:46:34;12.23;;;5.20;;
17842;SDS011;69286;48.222;16.332;2024-02-14T08:49:01;12.17;;;6.23;;
17842;SDS011;69286;48.222;16.332;2024-02-14T08:51:33;10.50;;;4.67;;
17842;SDS011;69286;48.222;16.332;2024-02-14T08:54:00;10.13;;;4.27;;
17842;SDS011;69286;48.222;16.332;2024-02-14T08:56:32;7.60;;;4.23;;
17842;SDS011;69286;48.222;16.332;2024-02-14T08:58:59;11.43;;;4.73;;
17842;SDS011;69286;48.222;16.332;2024-02-14T09:01:28;10.77;;;3.70;;
17842;SDS011;69286;48.222;16.332;2024-02-14T09:03:56;8.63;;;3.80;;
17842;SDS011;69286;48.222;16.332;2024-02-14T09:06:24;8.53;;;4.17;;
17842;SDS011;69286;48.222;16.332;2024-02-14T09:08:52;7.30;;;4.10;;
17842;SDS011;69286;48.222;16.332;2024-02-14T09:11:19;10.77;;;4.27;;
17842;SDS011;69286;48.222;16.332;2024-02-14T09:13:48;8.60;;;4.20;;
17842;SDS011;69286;48.222;16.332;2024-02-14T09:16:18;9.87;;;4.50;;
17842;SDS011;69286;48.222;16.332;2024-02-14T09:18:48;7.73;;;4.67;;
17842;SDS011;69286;48.222;16.332;2024-02-14T09:21:15;6.63;;;4.37;;
17842;SDS011;69286;48.222;16.332;2024-02-14T09:23:43;8.07;;;4.47;;
17842;SDS011;69286;48.222;16.332;2024-02-14T09:26:10;10.20;;;4.90;;
17842;SDS011;69286;48.222;16.332;2024-02-14T09:28:40;7.73;;;4.30;;
17842;SDS011;69286;48.222;16.332;2024-02-14T09:31:07;8.40;;;4.07;;
17842;SDS011;69286;48.222;16.332;2024-02-14T09:33:36;9.27;;;4.13;;
17842;SDS011;69286;48.222;16.332;2024-02-14T09:36:05;9.93;;;3.87;;
17842;SDS011;69286;48.222;16.332;2024-02-14T09:38:32;11.00;;;4.57;;
17842;SDS011;69286;48.222;16.332;2024-02-14T09:41:01;12.27;;;4.27;;
17842;SDS011;69286;48.222;16.332;2024-02-14T09:43:38;7.97;;;3.77;;
17842;SDS011;69286;48.222;16.332;2024-02-14T09:46:07;7.93;;;4.40;;
17842;SDS011;69286;48.222;16.332;2024-02-14T09:48:34;9.00;;;4.03;;
17842;SDS011;69286;48.222;16.332;2024-02-14T09:51:04;6.17;;;3.40;;
17842;SDS011;69286;48.222;16.332;2024-02-14T09:53:33;12.17;;;4.47;;
17842;SDS011;69286;48.222;16.332;2024-02-14T09:56:01;13.87;;;5.03;;
17842;SDS011;69286;48.222;16.332;2024-02-14T09:58:28;7.30;;;3.63;;
17842;SDS011;69286;48.222;16.332;2024-02-14T10:00:57;10.83;;;3.80;;
17842;SDS011;69286;48.222;16.332;2024-02-14T10:03:24;11.73;;;3.77;;
17842;SDS011;69286;48.222;16.332;2024-02-14T10:05:51;16.90;;;4.37;;
17842;SDS011;69286;48.222;16.332;2024-02-14T10:08:19;12.63;;;6.53;;
17842;SDS011;69286;48.222;16.332;2024-02-14T10:10:46;8.30;;;4.40;;
17842;SDS011;69286;48.222;16.332;2024-02-14T10:13:15;12.83;;;5.00;;
17842;SDS011;69286;48.222;16.332;2024-02-14T10:15:42;16.07;;;5.17;;
17842;SDS011;69286;48.222;16.332;2024-02-14T10:18:09;11.50;;;4.63;;
17842;SDS011;69286;48.222;16.332;2024-02-14T10:20:36;13.50;;;4.33;;
17842;SDS011;69286;48.222;16.332;2024-02-14T10:23:08;12.63;;;3.93;;
17842;SDS011;69286;48.222;16.332;2024-02-14T10:25:39;12.97;;;4.43;;
17842;SDS011;69286;48.222;16.332;2024-02-14T10:28:08;8.77;;;3.93;;
17842;SDS011;69286;48.222;16.332;2024-02-14T10:30:38;9.10;;;4.43;;
17842;SDS011;69286;48.222;16.332;2024-02-14T10:33:06;6.80;;;3.80;;
17842;SDS011;69286;48.222;16.332;2024-02-14T10:35:36;6.23;;;3.60;;
17842;SDS011;69286;48.222;16.332;2024-02-14T10:38:06;10.50;;;3.67;;
17842;SDS011;69286;48.222;16.332;2024-02-14T10:40:34;8.63;;;3.70;;
17842;SDS011;69286;48.222;16.332;2024-02-14T10:43:04;8.97;;;3.00;;
17842;SDS011;69286;48.222;16.332;2024-02-14T10:45:32;6.30;;;2.80;;
17842;SDS011;69286;48.222;16.332;2024-02-14T10:48:01;15.07;;;3.00;;
17842;SDS011;69286;48.222;16.332;2024-02-14T10:50:32;5.70;;;2.93;;
17842;SDS011;69286;48.222;16.332;2024-02-14T10:53:03;8.30;;;2.90;;
17842;SDS011;69286;48.222;16.332;2024-02-14T10:55:33;4.90;;;2.93;;
17842;SDS011;69286;48.222;16.332;2024-02-14T10:58:01;6.70;;;3.00;;
17842;SDS011;69286;48.222;16.332;2024-02-14T11:00:30;7.10;;;3.10;;
17842;SDS011;69286;48.222;16.332;2024-02-14T11:02:58;8.10;;;3.30;;
17842;SDS011;69286;48.222;16.332;2024-02-14T11:05:27;5.27;;;2.80;;
17842;SDS011;69286;48.222;16.332;2024-02-14T11:07:54;5.00;;;2.80;;
17842;SDS011;69286;48.222;16.332;2024-02-14T11:10:22;7.80;;;2.90;;
17842;SDS011;69286;48.222;16.332;2024-02-14T11:12:50;5.47;;;3.13;;
17842;SDS011;69286;48.222;16.332;2024-02-14T11:15:17;5.50;;;2.70;;
17842;SDS011;69286;48.222;16.332;2024-02-14T11:17:48;5.77;;;2.57;;
17842;SDS011;69286;48.222;16.332;2024-02-14T11:20:17;6.13;;;2.90;;
17842;SDS011;69286;48.222;16.332;2024-02-14T11:22:50;5.87;;;2.70;;
17842;SDS011;69286;48.222;16.332;2024-02-14T11:25:30;4.70;;;2.40;;
17842;SDS011;69286;48.222;16.332;2024-02-14T11:27:59;6.10;;;2.47;;
17842;SDS011;69286;48.222;16.332;2024-02-14T11:30:29;8.37;;;3.00;;
17842;SDS011;69286;48.222;16.332;2024-02-14T11:33:15;5.80;;;3.00;;
17842;SDS011;69286;48.222;16.332;2024-02-14T11:35:43;4.17;;;2.60;;
17842;SDS011;69286;48.222;16.332;2024-02-14T11:38:11;6.40;;;2.83;;
17842;SDS011;69286;48.222;16.332;2024-02-14T11:40:39;8.13;;;2.73;;
17842;SDS011;69286;48.222;16.332;2024-02-14T11:43:10;6.93;;;3.23;;
17842;SDS011;69286;48.222;16.332;2024-02-14T11:45:38;8.47;;;3.33;;
17842;SDS011;69286;48.222;16.332;2024-02-14T11:48:07;7.57;;;4.03;;
17842;SDS011;69286;48.222;16.332;2024-02-14T11:50:37;5.53;;;3.80;;
17842;SDS011;69286;48.222;16.332;2024-02-14T11:53:06;6.30;;;3.10;;
17842;SDS011;69286;48.222;16.332;2024-02-14T11:55:34;5.37;;;2.67;;
17842;SDS011;69286;48.222;16.332;2024-02-14T11:58:02;8.33;;;2.80;;
17842;SDS011;69286;48.222;16.332;2024-02-14T12:00:34;4.37;;;2.10;;
17842;SDS011;69286;48.222;16.332;2024-02-14T12:03:05;2.90;;;1.60;;
17842;SDS011;69286;48.222;16.332;2024-02-14T12:05:33;2.57;;;1.70;;
17842;SDS011;69286;48.222;16.332;2024-02-14T12:08:04;4.30;;;1.67;;
17842;SDS011;69286;48.222;16.332;2024-02-14T12:10:32;4.27;;;1.70;;
17842;SDS011;69286;48.222;16.332;2024-02-14T12:13:04;3.90;;;2.10;;
17842;SDS011;69286;48.222;16.332;2024-02-14T12:15:36;6.43;;;1.77;;
17842;SDS011;69286;48.222;16.332;2024-02-14T12:18:04;2.43;;;1.63;;
17842;SDS011;69286;48.222;16.332;2024-02-14T12:20:32;3.07;;;1.63;;
17842;SDS011;69286;48.222;16.332;2024-02-14T12:22:59;2.87;;;1.53;;
17842;SDS011;69286;48.222;16.332;2024-02-14T12:25:27;1.77;;;1.67;;
17842;SDS011;69286;48.222;16.332;2024-02-14T12:27:56;2.83;;;1.40;;
17842;SDS011;69286;48.222;16.332;2024-02-14T12:30:23;3.37;;;1.57;;
17842;SDS011;69286;48.222;16.332;2024-02-14T12:33:09;3.27;;;1.80;;
17842;SDS011;69286;48.222;16.332;2024-02-14T12:35:40;2.57;;;1.40;;
17842;SDS011;69286;48.222;16.332;2024-02-14T12:38:11;1.60;;;1.50;;
17842;SDS011;69286;48.222;16.332;2024-02-14T12:40:40;4.73;;;1.73;;
17842;SDS011;69286;48.222;16.332;2024-02-14T12:43:09;2.83;;;1.57;;
17842;SDS011;69286;48.222;16.332;2024-02-14T12:45:36;2.90;;;1.30;;
17842;SDS011;69286;48.222;16.332;2024-02-14T12:48:04;2.53;;;1.60;;
17842;SDS011;69286;48.222;16.332;2024-02-14T12:50:33;1.50;;;1.40;;
17842;SDS011;69286;48.222;16.332;2024-02-14T12:53:02;3.27;;;1.30;;
17842;SDS011;69286;48.222;16.332;2024-02-14T12:55:29;1.67;;;1.47;;
17842;SDS011;69286;48.222;16.332;2024-02-14T12:57:58;1.93;;;1.77;;
17842;SDS011;69286;48.222;16.332;2024-02-14T13:00:25;4.70;;;1.60;;
17842;SDS011;69286;48.222;16.332;2024-02-14T13:02:54;2.17;;;1.60;;
17842;SDS011;69286;48.222;16.332;2024-02-14T13:05:22;3.33;;;1.83;;
17842;SDS011;69286;48.222;16.332;2024-02-14T13:07:50;3.63;;;1.90;;
17842;SDS011;69286;48.222;16.332;2024-02-14T13:10:17;3.30;;;2.10;;
17842;SDS011;69286;48.222;16.332;2024-02-14T13:12:45;2.97;;;1.97;;
17842;SDS011;69286;48.222;16.332;2024-02-14T13:15:13;6.50;;;2.00;;
17842;SDS011;69286;48.222;16.332;2024-02-14T13:17:43;3.03;;;1.77;;
17842;SDS011;69286;48.222;16.332;2024-02-14T13:20:11;4.77;;;1.80;;
17842;SDS011;69286;48.222;16.332;2024-02-14T13:22:40;5.13;;;2.13;;
17842;SDS011;69286;48.222;16.332;2024-02-14T13:25:08;7.27;;;2.43;;
17842;SDS011;69286;48.222;16.332;2024-02-14T13:27:38;3.30;;;2.00;;
17842;SDS011;69286;48.222;16.332;2024-02-14T13:30:05;7.10;;;1.90;;
17842;SDS011;69286;48.222;16.332;2024-02-14T13:32:34;2.33;;;1.83;;
17842;SDS011;69286;48.222;16.332;2024-02-14T13:35:02;2.27;;;2.07;;
17842;SDS011;69286;48.222;16.332;2024-02-14T13:37:32;8.87;;;2.37;;
17842;SDS011;69286;48.222;16.332;2024-02-14T13:39:59;3.57;;;1.83;;
17842;SDS011;69286;48.222;16.332;2024-02-14T13:42:29;6.73;;;2.57;;
17842;SDS011;69286;48.222;16.332;2024-02-14T13:44:56;5.47;;;2.20;;
17842;SDS011;69286;48.222;16.332;2024-02-14T13:47:23;3.23;;;1.83;;
17842;SDS011;69286;48.222;16.332;2024-02-14T13:49:52;6.60;;;2.03;;
17842;SDS011;69286;48.222;16.332;2024-02-14T13:52:19;6.07;;;1.93;;
17842;SDS011;69286;48.222;16.332;2024-02-14T13:54:46;4.00;;;1.93;;
17842;SDS011;69286;48.222;16.332;2024-02-14T13:57:14;1.70;;;1.60;;
17842;SDS011;69286;48.222;16.332;2024-02-14T13:59:41;6.33;;;2.20;;
17842;SDS011;69286;48.222;16.332;2024-02-14T14:02:08;5.47;;;2.10;;
17842;SDS011;69286;48.222;16.332;2024-02-14T14:04:36;4.27;;;1.87;;
17842;SDS011;69286;48.222;16.332;2024-02-14T14:07:04;4.53;;;2.13;;
17842;SDS011;69286;48.222;16.332;2024-02-14T14:09:33;3.67;;;1.90;;
17842;SDS011;69286;48.222;16.332;2024-02-14T14:12:00;3.40;;;1.93;;
17842;SDS011;69286;48.222;16.332;2024-02-14T14:14:27;4.87;;;2.57;;
17842;SDS011;69286;48.222;16.332;2024-02-14T14:16:55;3.57;;;2.40;;
17842;SDS011;69286;48.222;16.332;2024-02-14T14:19:23;5.37;;;1.87;;
17842;SDS011;69286;48.222;16.332;2024-02-14T14:21:50;4.93;;;1.87;;
17842;SDS011;69286;48.222;16.332;2024-02-14T14:24:19;2.50;;;2.20;;
17842;SDS011;69286;48.222;16.332;2024-02-14T14:26:46;3.20;;;2.00;;
17842;SDS011;69286;48.222;16.332;2024-02-14T14:29:13;4.87;;;3.00;;
17842;SDS011;69286;48.222;16.332;2024-02-14T14:31:40;3.10;;;2.70;;
17842;SDS011;69286;48.222;16.332;2024-02-14T14:34:08;3.77;;;2.10;;
17842;SDS011;69286;48.222;16.332;2024-02-14T14:36:35;5.07;;;2.97;;